sensor_id;sensor_type;location;lat;lon;timestamp;P1;durP1;ratioP1;P2;durP2;ratioP2
39930;SDS011;26635;-35.248;149.138;2023-03-01T00:00:03;8.45;;;4.90;;
39930;SDS011;26635;-35.248;149.138;2023-03-01T00:02:36;5.40;;;4.53;;
39930;SDS011;26635;-35.248;149.138;2023-03-01T00:05:08;6.13;;;4.32;;
39930;SDS011;26635;-35.248;149.138;2023-03-01T00:07:40;5.20;;;4.07;;
39930;SDS011;26635;-35.248;149.138;2023-03-01T00:10:12;8.88;;;4.55;;
39930;SDS011;26635;-35.248;149.138;2023-03-01T00:12:43;8.70;;;4.72;;
39930;SDS011;26635;-35.248;149.138;2023-03-01T00:15:14;7.60;;;4.95;;
39930;SDS011;26635;-35.248;149.138;2023-03-01T00:17:46;7.05;;;4.53;;
39930;SDS011;26635;-35.248;149.138;2023-03-01T00:20:18;6.20;;;4.32;;
39930;SDS011;26635;-35.248;149.138;2023-03-01T00:22:49;8.23;;;4.78;;
39930;SDS011;26635;-35.248;149.138;2023-03-01T00:25:19;7.00;;;4.15;;
39930;SDS011;26635;-35.248;149.138;2023-03-01T00:27:50;5.85;;;4.32;;
39930;SDS011;26635;-35.248;149.138;2023-03-01T00:30:20;6.60;;;4.75;;
39930;SDS011;26635;-35.248;149.138;2023-03-01T00:32:51;5.65;;;4.50;;
39930;SDS011;26635;-35.248;149.138;2023-03-01T00:35:21;5.90;;;4.03;;
39930;SDS011;26635;-35.248;149.138;2023-03-01T00:37:51;5.35;;;4.45;;
39930;SDS011;26635;-35.248;149.138;2023-03-01T00:40:27;7.20;;;4.40;;
39930;SDS011;26635;-35.248;149.138;2023-03-01T00:43:00;6.70;;;4.93;;
39930;SDS011;26635;-35.248;149.138;2023-03-01T00:45:32;6.28;;;4.50;;
39930;SDS011;26635;-35.248;149.138;2023-03-01T00:48:03;5.70;;;4.03;;
39930;SDS011;26635;-35.248;149.138;2023-03-01T00:50:34;5.65;;;4.50;;
39930;SDS011;26635;-35.248;149.138;2023-03-01T00:53:05;6.97;;;3.80;;
39930;SDS011;26635;-35.248;149.138;2023-03-01T00:55:35;5.68;;;4.57;;
39930;SDS011;26635;-35.248;149.138;2023-03-01T00:58:07;5.43;;;4.32;;
39930;SDS011;26635;-35.248;149.138;2023-03-01T01:00:39;6.88;;;4.32;;
39930;SDS011;26635;-35.248;149.138;2023-03-01T01:03:10;5.90;;;4.43;;
39930;SDS011;26635;-35.248;149.138;2023-03-01T01:05:41;4.95;;;4.45;;
39930;SDS011;26635;-35.248;149.138;2023-03-01T01:08:13;6.13;;;4.57;;
39930;SDS011;26635;-35.248;149.138;2023-03-01T01:10:48;5.72;;;3.65;;
39930;SDS011;26635;-35.248;149.138;2023-03-01T01:13:19;7.00;;;4.97;;
39930;SDS011;26635;-35.248;149.138;2023-03-01T01:15:51;5.75;;;3.97;;
39930;SDS011;26635;-35.248;149.138;2023-03-01T01:18:22;4.28;;;3.53;;
39930;SDS011;26635;-35.248;149.138;2023-03-01T01:20:53;4.65;;;3.70;;
39930;SDS011;26635;-35.248;149.138;2023-03-01T01:23:24;4.20;;;3.20;;
39930;SDS011;26635;-35.248;149.138;2023-03-01T01:25:54;5.00;;;3.85;;
39930;SDS011;26635;-35.248;149.138;2023-03-01T01:28:27;5.63;;;3.50;;
39930;SDS011;26635;-35.248;149.138;2023-03-01T01:31:00;5.88;;;3.60;;
39930;SDS011;26635;-35.248;149.138;2023-03-01T01:33:32;7.80;;;3.60;;
39930;SDS011;26635;-35.248;149.138;2023-03-01T01:36:05;5.35;;;3.67;;
39930;SDS011;26635;-35.248;149.138;2023-03-01T01:38:38;4.20;;;3.35;;
39930;SDS011;26635;-35.248;149.138;2023-03-01T01:41:11;5.43;;;3.78;;
39930;SDS011;26635;-35.248;149.138;2023-03-01T01:44:28;5.00;;;3.00;;
39930;SDS011;26635;-35.248;149.138;2023-03-01T01:46:41;7.18;;;3.17;;
39930;SDS011;26635;-35.248;149.138;2023-03-01T01:52:22;8.60;;;3.92;;
39930;SDS011;26635;-35.248;149.138;2023-03-01T01:57:55;4.75;;;3.40;;
39930;SDS011;26635;-35.248;149.138;2023-03-01T02:00:30;4.20;;;3.13;;
39930;SDS011;26635;-35.248;149.138;2023-03-01T02:03:04;3.53;;;2.85;;
39930;SDS011;26635;-35.248;149.138;2023-03-01T02:08:22;2.80;;;2.25;;
39930;SDS011;26635;-35.248;149.138;2023-03-01T02:11:01;3.92;;;3.10;;
39930;SDS011;26635;-35.248;149.138;2023-03-01T02:13:34;3.78;;;2.55;;
39930;SDS011;26635;-35.248;149.138;2023-03-01T02:16:08;2.92;;;1.95;;
39930;SDS011;26635;-35.248;149.138;2023-03-01T02:18:40;2.83;;;2.33;;
39930;SDS011;26635;-35.248;149.138;2023-03-01T02:27:30;3.53;;;2.08;;
39930;SDS011;26635;-35.248;149.138;2023-03-01T02:30:26;2.88;;;2.08;;
39930;SDS011;26635;-35.248;149.138;2023-03-01T02:32:58;3.05;;;1.92;;
39930;SDS011;26635;-35.248;149.138;2023-03-01T02:35:35;3.72;;;2.50;;
39930;SDS011;26635;-35.248;149.138;2023-03-01T02:38:08;5.68;;;2.65;;
39930;SDS011;26635;-35.248;149.138;2023-03-01T02:40:40;4.72;;;2.30;;
39930;SDS011;26635;-35.248;149.138;2023-03-01T02:43:14;4.82;;;2.38;;
39930;SDS011;26635;-35.248;149.138;2023-03-01T02:45:48;3.05;;;2.67;;
39930;SDS011;26635;-35.248;149.138;2023-03-01T02:48:19;4.80;;;2.50;;
39930;SDS011;26635;-35.248;149.138;2023-03-01T02:53:43;3.58;;;2.38;;
39930;SDS011;26635;-35.248;149.138;2023-03-01T02:56:36;3.78;;;2.50;;
39930;SDS011;26635;-35.248;149.138;2023-03-01T02:59:06;3.22;;;2.50;;
39930;SDS011;26635;-35.248;149.138;2023-03-01T03:01:38;2.90;;;2.47;;
39930;SDS011;26635;-35.248;149.138;2023-03-01T03:04:10;2.92;;;2.25;;
39930;SDS011;26635;-35.248;149.138;2023-03-01T03:06:47;2.75;;;2.05;;
39930;SDS011;26635;-35.248;149.138;2023-03-01T03:09:18;3.35;;;2.10;;
39930;SDS011;26635;-35.248;149.138;2023-03-01T03:11:49;2.97;;;2.17;;
39930;SDS011;26635;-35.248;149.138;2023-03-01T03:14:20;3.63;;;2.40;;
39930;SDS011;26635;-35.248;149.138;2023-03-01T03:16:50;3.67;;;2.30;;
39930;SDS011;26635;-35.248;149.138;2023-03-01T03:19:21;3.67;;;2.33;;
39930;SDS011;26635;-35.248;149.138;2023-03-01T03:21:52;3.75;;;2.88;;
39930;SDS011;26635;-35.248;149.138;2023-03-01T03:24:22;3.38;;;2.38;;
39930;SDS011;26635;-35.248;149.138;2023-03-01T03:26:52;3.53;;;2.38;;
39930;SDS011;26635;-35.248;149.138;2023-03-01T03:29:23;2.97;;;2.35;;
39930;SDS011;26635;-35.248;149.138;2023-03-01T03:31:57;2.97;;;2.10;;
39930;SDS011;26635;-35.248;149.138;2023-03-01T03:34:27;3.90;;;2.10;;
39930;SDS011;26635;-35.248;149.138;2023-03-01T03:36:58;4.30;;;2.70;;
39930;SDS011;26635;-35.248;149.138;2023-03-01T03:39:29;3.22;;;2.13;;
39930;SDS011;26635;-35.248;149.138;2023-03-01T03:42:03;3.42;;;2.63;;
39930;SDS011;26635;-35.248;149.138;2023-03-01T03:44:34;4.13;;;2.40;;
39930;SDS011;26635;-35.248;149.138;2023-03-01T03:47:06;4.80;;;1.95;;
39930;SDS011;26635;-35.248;149.138;2023-03-01T03:49:38;3.03;;;2.13;;
39930;SDS011;26635;-35.248;149.138;2023-03-01T03:52:08;3.55;;;2.35;;
39930;SDS011;26635;-35.248;149.138;2023-03-01T03:54:41;2.75;;;2.28;;
39930;SDS011;26635;-35.248;149.138;2023-03-01T03:57:12;2.78;;;2.00;;
39930;SDS011;26635;-35.248;149.138;2023-03-01T03:59:42;4.35;;;1.90;;
39930;SDS011;26635;-35.248;149.138;2023-03-01T04:02:12;3.10;;;1.90;;
39930;SDS011;26635;-35.248;149.138;2023-03-01T04:04:53;4.07;;;2.58;;
39930;SDS011;26635;-35.248;149.138;2023-03-01T04:07:24;3.65;;;2.72;;
39930;SDS011;26635;-35.248;149.138;2023-03-01T04:09:54;3.60;;;2.53;;
39930;SDS011;26635;-35.248;149.138;2023-03-01T04:12:24;3.60;;;2.65;;
39930;SDS011;26635;-35.248;149.138;2023-03-01T04:14:55;2.40;;;2.00;;
39930;SDS011;26635;-35.248;149.138;2023-03-01T04:17:29;3.15;;;2.40;;
39930;SDS011;26635;-35.248;149.138;2023-03-01T04:19:59;3.05;;;1.98;;
39930;SDS011;26635;-35.248;149.138;2023-03-01T04:22:34;3.95;;;2.72;;
39930;SDS011;26635;-35.248;149.138;2023-03-01T04:25:04;3.03;;;2.03;;
39930;SDS011;26635;-35.248;149.138;2023-03-01T04:27:36;3.08;;;2.17;;
39930;SDS011;26635;-35.248;149.138;2023-03-01T04:30:07;2.95;;;2.00;;
39930;SDS011;26635;-35.248;149.138;2023-03-01T04:32:40;4.47;;;2.15;;
39930;SDS011;26635;-35.248;149.138;2023-03-01T04:35:10;3.03;;;2.30;;
39930;SDS011;26635;-35.248;149.138;2023-03-01T04:37:41;2.58;;;2.03;;
39930;SDS011;26635;-35.248;149.138;2023-03-01T04:40:13;2.83;;;1.95;;
39930;SDS011;26635;-35.248;149.138;2023-03-01T04:42:47;2.95;;;2.42;;
39930;SDS011;26635;-35.248;149.138;2023-03-01T04:45:18;3.55;;;2.45;;
39930;SDS011;26635;-35.248;149.138;2023-03-01T04:47:48;2.78;;;1.50;;
39930;SDS011;26635;-35.248;149.138;2023-03-01T04:50:20;2.80;;;1.38;;
39930;SDS011;26635;-35.248;149.138;2023-03-01T04:52:51;2.17;;;1.65;;
39930;SDS011;26635;-35.248;149.138;2023-03-01T04:55:23;4.95;;;1.92;;
39930;SDS011;26635;-35.248;149.138;2023-03-01T04:57:55;2.85;;;1.50;;
39930;SDS011;26635;-35.248;149.138;2023-03-01T05:00:26;3.38;;;1.50;;
39930;SDS011;26635;-35.248;149.138;2023-03-01T05:02:59;2.45;;;1.85;;
39930;SDS011;26635;-35.248;149.138;2023-03-01T05:05:31;2.78;;;1.60;;
39930;SDS011;26635;-35.248;149.138;2023-03-01T05:08:05;2.03;;;1.58;;
39930;SDS011;26635;-35.248;149.138;2023-03-01T05:10:51;3.60;;;1.67;;
39930;SDS011;26635;-35.248;149.138;2023-03-01T05:13:22;2.63;;;1.60;;
39930;SDS011;26635;-35.248;149.138;2023-03-01T05:15:54;3.00;;;2.00;;
39930;SDS011;26635;-35.248;149.138;2023-03-01T05:18:27;2.00;;;1.50;;
39930;SDS011;26635;-35.248;149.138;2023-03-01T05:21:07;2.40;;;1.38;;
39930;SDS011;26635;-35.248;149.138;2023-03-01T05:23:40;3.30;;;1.90;;
39930;SDS011;26635;-35.248;149.138;2023-03-01T05:26:12;4.05;;;2.65;;
39930;SDS011;26635;-35.248;149.138;2023-03-01T05:28:56;3.65;;;1.90;;
39930;SDS011;26635;-35.248;149.138;2023-03-01T05:31:27;3.42;;;2.10;;
39930;SDS011;26635;-35.248;149.138;2023-03-01T05:33:59;2.22;;;1.23;;
39930;SDS011;26635;-35.248;149.138;2023-03-01T05:36:30;2.35;;;1.50;;
39930;SDS011;26635;-35.248;149.138;2023-03-01T05:39:00;1.80;;;1.30;;
39930;SDS011;26635;-35.248;149.138;2023-03-01T05:41:31;3.30;;;1.30;;
39930;SDS011;26635;-35.248;149.138;2023-03-01T05:44:01;1.70;;;1.10;;
39930;SDS011;26635;-35.248;149.138;2023-03-01T05:46:33;3.28;;;1.40;;
39930;SDS011;26635;-35.248;149.138;2023-03-01T05:49:04;2.47;;;1.20;;
39930;SDS011;26635;-35.248;149.138;2023-03-01T05:51:34;2.00;;;1.20;;
39930;SDS011;26635;-35.248;149.138;2023-03-01T05:54:05;1.98;;;1.40;;
39930;SDS011;26635;-35.248;149.138;2023-03-01T05:56:37;2.35;;;0.88;;
39930;SDS011;26635;-35.248;149.138;2023-03-01T05:59:08;3.95;;;1.38;;
39930;SDS011;26635;-35.248;149.138;2023-03-01T06:01:39;2.67;;;1.02;;
39930;SDS011;26635;-35.248;149.138;2023-03-01T06:04:10;3.53;;;1.15;;
39930;SDS011;26635;-35.248;149.138;2023-03-01T06:06:41;2.65;;;1.05;;
39930;SDS011;26635;-35.248;149.138;2023-03-01T06:09:11;3.00;;;1.15;;
39930;SDS011;26635;-35.248;149.138;2023-03-01T06:11:43;2.10;;;1.25;;
39930;SDS011;26635;-35.248;149.138;2023-03-01T06:14:14;4.13;;;1.17;;
39930;SDS011;26635;-35.248;149.138;2023-03-01T06:16:45;2.70;;;0.93;;
39930;SDS011;26635;-35.248;149.138;2023-03-01T06:19:22;1.92;;;0.93;;
39930;SDS011;26635;-35.248;149.138;2023-03-01T06:21:53;3.22;;;1.10;;
39930;SDS011;26635;-35.248;149.138;2023-03-01T06:24:24;3.15;;;0.90;;
39930;SDS011;26635;-35.248;149.138;2023-03-01T06:26:57;2.17;;;1.10;;
39930;SDS011;26635;-35.248;149.138;2023-03-01T06:29:27;1.70;;;0.98;;
39930;SDS011;26635;-35.248;149.138;2023-03-01T06:31:59;1.70;;;1.10;;
39930;SDS011;26635;-35.248;149.138;2023-03-01T06:34:32;3.92;;;1.30;;
39930;SDS011;26635;-35.248;149.138;2023-03-01T06:37:03;1.77;;;1.10;;
39930;SDS011;26635;-35.248;149.138;2023-03-01T06:39:34;2.72;;;1.05;;
39930;SDS011;26635;-35.248;149.138;2023-03-01T06:42:07;3.33;;;1.23;;
39930;SDS011;26635;-35.248;149.138;2023-03-01T06:44:41;3.00;;;1.10;;
39930;SDS011;26635;-35.248;149.138;2023-03-01T06:47:13;3.90;;;1.35;;
39930;SDS011;26635;-35.248;149.138;2023-03-01T06:49:44;2.85;;;1.27;;
39930;SDS011;26635;-35.248;149.138;2023-03-01T06:52:15;2.35;;;0.93;;
39930;SDS011;26635;-35.248;149.138;2023-03-01T06:54:45;4.75;;;1.00;;
39930;SDS011;26635;-35.248;149.138;2023-03-01T06:57:16;3.42;;;1.13;;
39930;SDS011;26635;-35.248;149.138;2023-03-01T06:59:47;1.80;;;1.30;;
39930;SDS011;26635;-35.248;149.138;2023-03-01T07:02:21;1.80;;;0.90;;
39930;SDS011;26635;-35.248;149.138;2023-03-01T07:05:10;1.70;;;0.90;;
39930;SDS011;26635;-35.248;149.138;2023-03-01T07:07:40;1.15;;;0.70;;
39930;SDS011;26635;-35.248;149.138;2023-03-01T07:10:11;1.75;;;1.40;;
39930;SDS011;26635;-35.248;149.138;2023-03-01T07:12:42;2.53;;;1.13;;
39930;SDS011;26635;-35.248;149.138;2023-03-01T07:15:13;3.63;;;1.38;;
39930;SDS011;26635;-35.248;149.138;2023-03-01T07:17:43;1.40;;;1.02;;
39930;SDS011;26635;-35.248;149.138;2023-03-01T07:20:19;1.70;;;1.20;;
39930;SDS011;26635;-35.248;149.138;2023-03-01T07:22:54;1.95;;;0.95;;
39930;SDS011;26635;-35.248;149.138;2023-03-01T07:25:27;0.98;;;0.90;;
39930;SDS011;26635;-35.248;149.138;2023-03-01T07:27:57;2.03;;;0.88;;
39930;SDS011;26635;-35.248;149.138;2023-03-01T07:30:28;2.28;;;0.95;;
39930;SDS011;26635;-35.248;149.138;2023-03-01T07:32:59;5.05;;;0.80;;
39930;SDS011;26635;-35.248;149.138;2023-03-01T07:35:30;0.98;;;0.70;;
39930;SDS011;26635;-35.248;149.138;2023-03-01T07:38:02;1.83;;;0.82;;
39930;SDS011;26635;-35.248;149.138;2023-03-01T07:40:32;1.70;;;0.80;;
39930;SDS011;26635;-35.248;149.138;2023-03-01T07:43:03;3.15;;;1.02;;
39930;SDS011;26635;-35.248;149.138;2023-03-01T07:45:33;2.20;;;0.70;;
39930;SDS011;26635;-35.248;149.138;2023-03-01T07:48:04;1.00;;;0.70;;
39930;SDS011;26635;-35.248;149.138;2023-03-01T07:50:37;1.90;;;0.77;;
39930;SDS011;26635;-35.248;149.138;2023-03-01T07:53:08;1.52;;;0.73;;
39930;SDS011;26635;-35.248;149.138;2023-03-01T07:55:38;1.60;;;0.70;;
39930;SDS011;26635;-35.248;149.138;2023-03-01T07:58:09;1.73;;;0.60;;
39930;SDS011;26635;-35.248;149.138;2023-03-01T08:00:40;1.60;;;0.82;;
39930;SDS011;26635;-35.248;149.138;2023-03-01T08:03:10;1.67;;;0.75;;
39930;SDS011;26635;-35.248;149.138;2023-03-01T08:05:40;1.52;;;0.70;;
39930;SDS011;26635;-35.248;149.138;2023-03-01T08:08:12;1.30;;;0.68;;
39930;SDS011;26635;-35.248;149.138;2023-03-01T08:10:44;2.15;;;0.70;;
39930;SDS011;26635;-35.248;149.138;2023-03-01T08:13:20;2.88;;;1.35;;
39930;SDS011;26635;-35.248;149.138;2023-03-01T08:15:51;1.58;;;0.50;;
39930;SDS011;26635;-35.248;149.138;2023-03-01T08:18:22;1.83;;;0.55;;
39930;SDS011;26635;-35.248;149.138;2023-03-01T08:20:54;1.85;;;0.68;;
39930;SDS011;26635;-35.248;149.138;2023-03-01T08:23:24;1.88;;;0.50;;
39930;SDS011;26635;-35.248;149.138;2023-03-01T08:25:57;1.45;;;0.40;;
39930;SDS011;26635;-35.248;149.138;2023-03-01T08:28:38;1.10;;;0.65;;
39930;SDS011;26635;-35.248;149.138;2023-03-01T08:33:58;1.13;;;0.80;;
39930;SDS011;26635;-35.248;149.138;2023-03-01T08:36:31;1.75;;;0.68;;
39930;SDS011;26635;-35.248;149.138;2023-03-01T08:39:04;3.25;;;0.60;;
39930;SDS011;26635;-35.248;149.138;2023-03-01T08:41:35;2.30;;;0.90;;
39930;SDS011;26635;-35.248;149.138;2023-03-01T08:44:06;1.95;;;0.90;;
39930;SDS011;26635;-35.248;149.138;2023-03-01T08:46:40;0.90;;;0.60;;
39930;SDS011;26635;-35.248;149.138;2023-03-01T08:49:12;2.47;;;0.60;;
39930;SDS011;26635;-35.248;149.138;2023-03-01T08:51:44;1.85;;;0.70;;
39930;SDS011;26635;-35.248;149.138;2023-03-01T08:54:17;1.30;;;1.02;;
39930;SDS011;26635;-35.248;149.138;2023-03-01T08:56:48;1.42;;;0.40;;
39930;SDS011;26635;-35.248;149.138;2023-03-01T08:59:19;1.00;;;0.55;;
39930;SDS011;26635;-35.248;149.138;2023-03-01T09:01:49;0.98;;;0.55;;
39930;SDS011;26635;-35.248;149.138;2023-03-01T09:04:20;1.77;;;0.50;;
39930;SDS011;26635;-35.248;149.138;2023-03-01T09:06:54;0.98;;;0.30;;
39930;SDS011;26635;-35.248;149.138;2023-03-01T09:09:24;1.85;;;0.70;;
39930;SDS011;26635;-35.248;149.138;2023-03-01T09:11:56;2.00;;;0.50;;
39930;SDS011;26635;-35.248;149.138;2023-03-01T09:14:27;2.60;;;0.77;;
39930;SDS011;26635;-35.248;149.138;2023-03-01T09:17:00;4.40;;;0.57;;
39930;SDS011;26635;-35.248;149.138;2023-03-01T09:19:31;2.13;;;0.60;;
39930;SDS011;26635;-35.248;149.138;2023-03-01T09:22:02;0.93;;;0.52;;
39930;SDS011;26635;-35.248;149.138;2023-03-01T09:24:33;1.52;;;0.63;;
39930;SDS011;26635;-35.248;149.138;2023-03-01T09:27:04;0.80;;;0.45;;
39930;SDS011;26635;-35.248;149.138;2023-03-01T09:29:37;0.98;;;0.40;;
39930;SDS011;26635;-35.248;149.138;2023-03-01T09:32:08;1.70;;;0.50;;
39930;SDS011;26635;-35.248;149.138;2023-03-01T09:34:39;0.90;;;0.32;;
39930;SDS011;26635;-35.248;149.138;2023-03-01T09:37:27;4.25;;;0.65;;
39930;SDS011;26635;-35.248;149.138;2023-03-01T09:40:02;3.60;;;1.23;;
39930;SDS011;26635;-35.248;149.138;2023-03-01T09:42:34;1.25;;;0.43;;
39930;SDS011;26635;-35.248;149.138;2023-03-01T09:45:18;0.80;;;0.50;;
39930;SDS011;26635;-35.248;149.138;2023-03-01T09:48:11;1.38;;;0.38;;
39930;SDS011;26635;-35.248;149.138;2023-03-01T09:50:50;2.58;;;0.80;;
39930;SDS011;26635;-35.248;149.138;2023-03-01T09:53:23;0.95;;;0.50;;
39930;SDS011;26635;-35.248;149.138;2023-03-01T09:56:05;1.13;;;0.40;;
39930;SDS011;26635;-35.248;149.138;2023-03-01T09:58:51;1.52;;;0.50;;
39930;SDS011;26635;-35.248;149.138;2023-03-01T10:02:14;1.23;;;0.52;;
39930;SDS011;26635;-35.248;149.138;2023-03-01T10:09:43;2.08;;;0.55;;
39930;SDS011;26635;-35.248;149.138;2023-03-01T10:12:27;3.20;;;0.70;;
39930;SDS011;26635;-35.248;149.138;2023-03-01T10:15:06;2.38;;;0.85;;
39930;SDS011;26635;-35.248;149.138;2023-03-01T10:17:51;0.77;;;0.50;;
39930;SDS011;26635;-35.248;149.138;2023-03-01T10:20:31;1.38;;;0.43;;
39930;SDS011;26635;-35.248;149.138;2023-03-01T10:23:25;1.17;;;0.43;;
39930;SDS011;26635;-35.248;149.138;2023-03-01T10:28:57;1.10;;;0.32;;
39930;SDS011;26635;-35.248;149.138;2023-03-01T10:31:51;3.70;;;0.50;;
39930;SDS011;26635;-35.248;149.138;2023-03-01T10:34:33;2.30;;;0.50;;
39930;SDS011;26635;-35.248;149.138;2023-03-01T10:37:14;0.70;;;0.50;;
39930;SDS011;26635;-35.248;149.138;2023-03-01T10:39:57;2.40;;;0.40;;
39930;SDS011;26635;-35.248;149.138;2023-03-01T10:42:47;1.90;;;0.40;;
39930;SDS011;26635;-35.248;149.138;2023-03-01T10:48:13;0.90;;;0.40;;
39930;SDS011;26635;-35.248;149.138;2023-03-01T10:50:46;0.82;;;0.32;;
39930;SDS011;26635;-35.248;149.138;2023-03-01T10:53:34;1.98;;;0.40;;
39930;SDS011;26635;-35.248;149.138;2023-03-01T10:56:12;1.52;;;0.45;;
39930;SDS011;26635;-35.248;149.138;2023-03-01T11:01:34;1.88;;;0.40;;
39930;SDS011;26635;-35.248;149.138;2023-03-01T11:06:39;3.05;;;1.20;;
39930;SDS011;26635;-35.248;149.138;2023-03-01T11:09:14;0.77;;;0.30;;
39930;SDS011;26635;-35.248;149.138;2023-03-01T11:11:55;1.27;;;0.30;;
39930;SDS011;26635;-35.248;149.138;2023-03-01T11:14:27;1.27;;;0.35;;
39930;SDS011;26635;-35.248;149.138;2023-03-01T11:17:05;0.25;;;0.20;;
39930;SDS011;26635;-35.248;149.138;2023-03-01T11:19:42;0.90;;;0.30;;
39930;SDS011;26635;-35.248;149.138;2023-03-01T11:22:29;0.98;;;0.30;;
39930;SDS011;26635;-35.248;149.138;2023-03-01T11:25:03;1.13;;;0.30;;
39930;SDS011;26635;-35.248;149.138;2023-03-01T11:27:38;1.13;;;0.40;;
39930;SDS011;26635;-35.248;149.138;2023-03-01T11:30:15;3.00;;;0.77;;
39930;SDS011;26635;-35.248;149.138;2023-03-01T11:35:53;0.95;;;0.43;;
39930;SDS011;26635;-35.248;149.138;2023-03-01T11:38:32;1.13;;;0.30;;
39930;SDS011;26635;-35.248;149.138;2023-03-01T11:41:07;3.15;;;0.40;;
39930;SDS011;26635;-35.248;149.138;2023-03-01T11:54:42;2.30;;;0.50;;
39930;SDS011;26635;-35.248;149.138;2023-03-01T12:03:26;2.22;;;0.60;;
39930;SDS011;26635;-35.248;149.138;2023-03-01T12:06:26;1.15;;;0.25;;
39930;SDS011;26635;-35.248;149.138;2023-03-01T12:12:25;1.88;;;0.40;;
39930;SDS011;26635;-35.248;149.138;2023-03-01T12:18:06;0.75;;;0.35;;
39930;SDS011;26635;-35.248;149.138;2023-03-01T12:23:16;1.20;;;0.50;;
39930;SDS011;26635;-35.248;149.138;2023-03-01T12:29:19;0.60;;;0.35;;
39930;SDS011;26635;-35.248;149.138;2023-03-01T12:35:05;1.40;;;0.50;;
39930;SDS011;26635;-35.248;149.138;2023-03-01T12:49:56;1.38;;;0.50;;
39930;SDS011;26635;-35.248;149.138;2023-03-01T13:00:44;4.65;;;0.98;;
39930;SDS011;26635;-35.248;149.138;2023-03-01T13:17:54;1.85;;;0.38;;
39930;SDS011;26635;-35.248;149.138;2023-03-01T13:33:48;2.78;;;0.40;;
39930;SDS011;26635;-35.248;149.138;2023-03-01T13:39:02;0.80;;;0.50;;
39930;SDS011;26635;-35.248;149.138;2023-03-01T13:41:55;0.77;;;0.30;;
39930;SDS011;26635;-35.248;149.138;2023-03-01T13:47:03;1.23;;;0.32;;
39930;SDS011;26635;-35.248;149.138;2023-03-01T13:54:56;1.30;;;0.30;;
39930;SDS011;26635;-35.248;149.138;2023-03-01T13:57:32;1.83;;;0.70;;
39930;SDS011;26635;-35.248;149.138;2023-03-01T14:00:06;2.83;;;0.40;;
39930;SDS011;26635;-35.248;149.138;2023-03-01T14:03:05;0.77;;;0.30;;
39930;SDS011;26635;-35.248;149.138;2023-03-01T14:08:43;2.45;;;0.50;;
39930;SDS011;26635;-35.248;149.138;2023-03-01T14:14:01;4.03;;;0.93;;
39930;SDS011;26635;-35.248;149.138;2023-03-01T14:19:31;2.55;;;0.60;;
39930;SDS011;26635;-35.248;149.138;2023-03-01T14:24:59;2.38;;;0.47;;
39930;SDS011;26635;-35.248;149.138;2023-03-01T14:27:35;1.40;;;0.47;;
39930;SDS011;26635;-35.248;149.138;2023-03-01T14:30:12;2.08;;;0.40;;
39930;SDS011;26635;-35.248;149.138;2023-03-01T14:33:00;1.63;;;0.50;;
39930;SDS011;26635;-35.248;149.138;2023-03-01T14:35:34;1.17;;;0.40;;
39930;SDS011;26635;-35.248;149.138;2023-03-01T14:38:06;1.05;;;0.45;;
39930;SDS011;26635;-35.248;149.138;2023-03-01T14:40:56;1.75;;;0.50;;
39930;SDS011;26635;-35.248;149.138;2023-03-01T14:43:32;1.75;;;0.40;;
39930;SDS011;26635;-35.248;149.138;2023-03-01T14:46:05;2.85;;;1.10;;
39930;SDS011;26635;-35.248;149.138;2023-03-01T14:48:47;1.52;;;0.50;;
39930;SDS011;26635;-35.248;149.138;2023-03-01T14:51:20;2.95;;;0.70;;
39930;SDS011;26635;-35.248;149.138;2023-03-01T14:53:50;1.10;;;0.50;;
39930;SDS011;26635;-35.248;149.138;2023-03-01T14:56:21;2.60;;;0.68;;
39930;SDS011;26635;-35.248;149.138;2023-03-01T14:58:53;4.35;;;0.95;;
39930;SDS011;26635;-35.248;149.138;2023-03-01T15:01:27;1.90;;;0.60;;
39930;SDS011;26635;-35.248;149.138;2023-03-01T15:03:58;2.50;;;0.50;;
39930;SDS011;26635;-35.248;149.138;2023-03-01T15:06:30;2.25;;;0.52;;
39930;SDS011;26635;-35.248;149.138;2023-03-01T15:09:01;2.83;;;0.52;;
39930;SDS011;26635;-35.248;149.138;2023-03-01T15:11:32;1.40;;;0.50;;
39930;SDS011;26635;-35.248;149.138;2023-03-01T15:14:24;2.13;;;0.50;;
39930;SDS011;26635;-35.248;149.138;2023-03-01T15:17:34;1.92;;;0.63;;
39930;SDS011;26635;-35.248;149.138;2023-03-01T15:20:17;1.38;;;0.55;;
39930;SDS011;26635;-35.248;149.138;2023-03-01T15:22:54;1.05;;;0.50;;
39930;SDS011;26635;-35.248;149.138;2023-03-01T15:25:27;4.32;;;1.13;;
39930;SDS011;26635;-35.248;149.138;2023-03-01T15:27:59;2.25;;;0.73;;
39930;SDS011;26635;-35.248;149.138;2023-03-01T15:30:32;4.00;;;0.80;;
39930;SDS011;26635;-35.248;149.138;2023-03-01T15:33:28;2.50;;;1.02;;
39930;SDS011;26635;-35.248;149.138;2023-03-01T15:42:13;2.80;;;1.00;;
39930;SDS011;26635;-35.248;149.138;2023-03-01T15:47:50;3.05;;;0.80;;
39930;SDS011;26635;-35.248;149.138;2023-03-01T15:50:34;2.83;;;0.70;;
39930;SDS011;26635;-35.248;149.138;2023-03-01T15:53:12;1.63;;;0.77;;
39930;SDS011;26635;-35.248;149.138;2023-03-01T15:55:44;1.33;;;0.57;;
39930;SDS011;26635;-35.248;149.138;2023-03-01T15:58:24;3.05;;;1.02;;
39930;SDS011;26635;-35.248;149.138;2023-03-01T16:00:54;4.20;;;0.90;;
39930;SDS011;26635;-35.248;149.138;2023-03-01T16:03:28;2.22;;;1.10;;
39930;SDS011;26635;-35.248;149.138;2023-03-01T16:05:58;2.95;;;0.73;;
39930;SDS011;26635;-35.248;149.138;2023-03-01T16:08:29;2.67;;;1.20;;
39930;SDS011;26635;-35.248;149.138;2023-03-01T16:11:04;3.00;;;1.00;;
39930;SDS011;26635;-35.248;149.138;2023-03-01T16:13:39;2.83;;;0.82;;
39930;SDS011;26635;-35.248;149.138;2023-03-01T16:16:13;2.17;;;0.70;;
39930;SDS011;26635;-35.248;149.138;2023-03-01T16:18:46;1.45;;;0.70;;
39930;SDS011;26635;-35.248;149.138;2023-03-01T16:21:20;4.15;;;0.70;;
39930;SDS011;26635;-35.248;149.138;2023-03-01T16:23:56;3.58;;;1.15;;
39930;SDS011;26635;-35.248;149.138;2023-03-01T16:26:26;1.58;;;0.50;;
39930;SDS011;26635;-35.248;149.138;2023-03-01T16:28:57;5.38;;;1.25;;
39930;SDS011;26635;-35.248;149.138;2023-03-01T16:31:27;1.10;;;0.70;;
39930;SDS011;26635;-35.248;149.138;2023-03-01T16:33:58;2.42;;;0.80;;
39930;SDS011;26635;-35.248;149.138;2023-03-01T16:36:30;4.15;;;0.73;;
39930;SDS011;26635;-35.248;149.138;2023-03-01T16:39:00;1.75;;;0.75;;
39930;SDS011;26635;-35.248;149.138;2023-03-01T16:41:31;3.30;;;0.80;;
39930;SDS011;26635;-35.248;149.138;2023-03-01T16:44:02;2.40;;;0.73;;
39930;SDS011;26635;-35.248;149.138;2023-03-01T16:46:35;2.47;;;0.98;;
39930;SDS011;26635;-35.248;149.138;2023-03-01T16:49:05;2.08;;;0.68;;
39930;SDS011;26635;-35.248;149.138;2023-03-01T16:51:35;2.15;;;1.20;;
39930;SDS011;26635;-35.248;149.138;2023-03-01T16:54:06;2.80;;;0.98;;
39930;SDS011;26635;-35.248;149.138;2023-03-01T16:56:36;2.78;;;0.80;;
39930;SDS011;26635;-35.248;149.138;2023-03-01T16:59:08;3.30;;;1.00;;
39930;SDS011;26635;-35.248;149.138;2023-03-01T17:01:38;2.05;;;1.10;;
39930;SDS011;26635;-35.248;149.138;2023-03-01T17:04:12;1.42;;;0.68;;
39930;SDS011;26635;-35.248;149.138;2023-03-01T17:06:45;4.00;;;1.02;;
39930;SDS011;26635;-35.248;149.138;2023-03-01T17:09:17;2.47;;;1.20;;
39930;SDS011;26635;-35.248;149.138;2023-03-01T17:11:50;1.55;;;0.70;;
39930;SDS011;26635;-35.248;149.138;2023-03-01T17:14:23;2.97;;;1.05;;
39930;SDS011;26635;-35.248;149.138;2023-03-01T17:16:53;2.80;;;1.17;;
39930;SDS011;26635;-35.248;149.138;2023-03-01T17:19:27;7.95;;;1.45;;